sensor_id;sensor_type;location;lat;lon;timestamp;pressure;altitude;pressure_sealevel;temperature;humidity
49947;BME280;35839;48.662;13.300;2024-03-23T00:55:48;96825.50;;;11.11;100.00
49947;BME280;35839;48.662;13.300;2024-03-23T00:58:14;96810.50;;;10.40;100.00
49947;BME280;35839;48.662;13.300;2024-03-23T01:00:39;96816.84;;;10.94;100.00
49947;BME280;35839;48.662;13.300;2024-03-23T01:03:04;96799.44;;;11.18;100.00
49947;BME280;35839;48.662;13.300;2024-03-23T01:05:30;96814.91;;;10.55;100.00
49947;BME280;35839;48.662;13.300;2024-03-23T01:07:56;96801.44;;;11.00;100.00
49947;BME280;35839;48.662;13.300;2024-03-23T01:10:21;96801.78;;;10.96;100.00
49947;BME280;35839;48.662;13.300;2024-03-23T01:12:46;96788.66;;;11.05;100.00
49947;BME280;35839;48.662;13.300;2024-03-23T01:15:12;96791.56;;;11.26;100.00
49947;BME280;35839;48.662;13.300;2024-03-23T01:17:37;96796.50;;;11.13;100.00
49947;BME280;35839;48.662;13.300;2024-03-23T01:20:03;96786.03;;;11.13;100.00
49947;BME280;35839;48.662;13.300;2024-03-23T01:22:29;96792.28;;;11.04;100.00
49947;BME280;35839;48.662;13.300;2024-03-23T01:24:54;96795.38;;;11.15;100.00
49947;BME280;35839;48.662;13.300;2024-03-23T01:27:20;96799.03;;;10.98;100.00
49947;BME280;35839;48.662;13.300;2024-03-23T01:29:45;96801.28;;;11.01;100.00
49947;BME280;35839;48.662;13.300;2024-03-23T01:32:10;96794.63;;;10.82;100.00
49947;BME280;35839;48.662;13.300;2024-03-23T01:34:36;96801.19;;;10.70;100.00
49947;BME280;35839;48.662;13.300;2024-03-23T01:37:01;96804.63;;;10.38;100.00
49947;BME280;35839;48.662;13.300;2024-03-23T01:39:27;96802.47;;;10.41;100.00
49947;BME280;35839;48.662;13.300;2024-03-23T01:41:52;96794.63;;;10.33;100.00
49947;BME280;35839;48.662;13.300;2024-03-23T01:44:17;96802.16;;;10.44;100.00
49947;BME280;35839;48.662;13.300;2024-03-23T01:46:43;96798.41;;;10.30;100.00
49947;BME280;35839;48.662;13.300;2024-03-23T01:49:10;96797.19;;;10.08;100.00
49947;BME280;35839;48.662;13.300;2024-03-23T01:51:36;96781.69;;;10.23;100.00
49947;BME280;35839;48.662;13.300;2024-03-23T01:54:03;96770.59;;;10.38;100.00
49947;BME280;35839;48.662;13.300;2024-03-23T01:56:29;96772.38;;;10.37;100.00
49947;BME280;35839;48.662;13.300;2024-03-23T01:58:55;96776.28;;;10.25;100.00
49947;BME280;35839;48.662;13.300;2024-03-23T02:01:20;96771.34;;;10.05;100.00
49947;BME280;35839;48.662;13.300;2024-03-23T02:03:46;96758.66;;;9.60;100.00
49947;BME280;35839;48.662;13.300;2024-03-23T02:06:11;96753.28;;;9.69;100.00
49947;BME280;35839;48.662;13.300;2024-03-23T02:08:37;96754.81;;;9.97;100.00
49947;BME280;35839;48.662;13.300;2024-03-23T02:11:02;96750.25;;;9.99;100.00
49947;BME280;35839;48.662;13.300;2024-03-23T02:13:27;96750.06;;;9.92;100.00
49947;BME280;35839;48.662;13.300;2024-03-23T02:15:53;96740.63;;;9.91;100.00
49947;BME280;35839;48.662;13.300;2024-03-23T02:18:18;96743.50;;;9.71;100.00
49947;BME280;35839;48.662;13.300;2024-03-23T02:20:43;96746.81;;;9.82;100.00
49947;BME280;35839;48.662;13.300;2024-03-23T02:23:16;96743.88;;;9.93;100.00
49947;BME280;35839;48.662;13.300;2024-03-23T02:25:42;96741.53;;;9.74;100.00
49947;BME280;35839;48.662;13.300;2024-03-23T02:28:07;96737.59;;;9.61;100.00
49947;BME280;35839;48.662;13.300;2024-03-23T02:30:33;96733.47;;;9.42;100.00
49947;BME280;35839;48.662;13.300;2024-03-23T02:32:58;96730.72;;;9.60;100.00
49947;BME280;35839;48.662;13.300;2024-03-23T02:35:24;96730.88;;;9.50;100.00
49947;BME280;35839;48.662;13.300;2024-03-23T02:37:49;96723.88;;;9.51;100.00
49947;BME280;35839;48.662;13.300;2024-03-23T02:40:15;96718.94;;;9.40;100.00
49947;BME280;35839;48.662;13.300;2024-03-23T02:42:40;96717.03;;;9.58;100.00
49947;BME280;35839;48.662;13.300;2024-03-23T02:45:06;96703.00;;;9.17;100.00
49947;BME280;35839;48.662;13.300;2024-03-23T02:47:32;96700.34;;;9.08;100.00
49947;BME280;35839;48.662;13.300;2024-03-23T02:49:58;96696.66;;;9.19;100.00
49947;BME280;35839;48.662;13.300;2024-03-23T02:52:23;96701.88;;;9.27;100.00
49947;BME280;35839;48.662;13.300;2024-03-23T02:54:48;96695.19;;;9.25;100.00
49947;BME280;35839;48.662;13.300;2024-03-23T02:57:14;96705.09;;;9.05;100.00
49947;BME280;35839;48.662;13.300;2024-03-23T02:59:39;96701.06;;;8.84;100.00
49947;BME280;35839;48.662;13.300;2024-03-23T03:02:04;96694.16;;;8.23;100.00
49947;BME280;35839;48.662;13.300;2024-03-23T03:04:30;96696.09;;;8.21;100.00
49947;BME280;35839;48.662;13.300;2024-03-23T03:06:56;96685.19;;;8.43;100.00
49947;BME280;35839;48.662;13.300;2024-03-23T03:09:21;96682.81;;;8.84;100.00
49947;BME280;35839;48.662;13.300;2024-03-23T03:11:46;96677.84;;;8.73;100.00
49947;BME280;35839;48.662;13.300;2024-03-23T03:14:12;96668.22;;;8.74;100.00
49947;BME280;35839;48.662;13.300;2024-03-23T03:16:37;96671.03;;;8.80;100.00
49947;BME280;35839;48.662;13.300;2024-03-23T03:19:03;96673.06;;;8.60;100.00
49947;BME280;35839;48.662;13.300;2024-03-23T03:21:28;96671.44;;;8.15;100.00
49947;BME280;35839;48.662;13.300;2024-03-23T03:23:54;96655.78;;;8.15;100.00
49947;BME280;35839;48.662;13.300;2024-03-23T03:26:21;96643.75;;;8.40;100.00
49947;BME280;35839;48.662;13.300;2024-03-23T03:28:47;96670.94;;;8.64;100.00
49947;BME280;35839;48.662;13.300;2024-03-23T03:31:17;96671.88;;;8.89;100.00
49947;BME280;35839;48.662;13.300;2024-03-23T03:33:43;96670.69;;;8.75;100.00
49947;BME280;35839;48.662;13.300;2024-03-23T03:36:08;96668.72;;;8.43;100.00
49947;BME280;35839;48.662;13.300;2024-03-23T03:38:34;96671.59;;;8.58;100.00
49947;BME280;35839;48.662;13.300;2024-03-23T03:41:03;96668.19;;;8.39;100.00
49947;BME280;35839;48.662;13.300;2024-03-23T03:43:29;96663.50;;;8.43;100.00
49947;BME280;35839;48.662;13.300;2024-03-23T03:45:55;96665.09;;;8.18;100.00
49947;BME280;35839;48.662;13.300;2024-03-23T03:48:21;96654.84;;;7.98;100.00
49947;BME280;35839;48.662;13.300;2024-03-23T03:50:46;96664.25;;;7.91;100.00
49947;BME280;35839;48.662;13.300;2024-03-23T03:53:11;96653.38;;;7.78;100.00
49947;BME280;35839;48.662;13.300;2024-03-23T03:55:37;96653.34;;;8.14;100.00
49947;BME280;35839;48.662;13.300;2024-03-23T03:58:02;96652.31;;;8.33;100.00
49947;BME280;35839;48.662;13.300;2024-03-23T04:00:28;96654.88;;;8.24;100.00
49947;BME280;35839;48.662;13.300;2024-03-23T04:02:53;96650.06;;;8.12;100.00
49947;BME280;35839;48.662;13.300;2024-03-23T04:05:18;96644.06;;;7.93;100.00
49947;BME280;35839;48.662;13.300;2024-03-23T04:07:45;96639.69;;;7.76;100.00
49947;BME280;35839;48.662;13.300;2024-03-23T04:10:10;96635.63;;;7.99;100.00
49947;BME280;35839;48.662;13.300;2024-03-23T04:12:36;96628.34;;;7.85;100.00
49947;BME280;35839;48.662;13.300;2024-03-23T04:15:02;96631.66;;;7.69;100.00
49947;BME280;35839;48.662;13.300;2024-03-23T04:17:29;96609.13;;;7.60;100.00
49947;BME280;35839;48.662;13.300;2024-03-23T04:19:57;96628.75;;;7.54;100.00
49947;BME280;35839;48.662;13.300;2024-03-23T04:22:23;96629.97;;;7.60;100.00
49947;BME280;35839;48.662;13.300;2024-03-23T04:24:52;96630.91;;;7.41;100.00
49947;BME280;35839;48.662;13.300;2024-03-23T04:27:18;96625.25;;;7.28;100.00
49947;BME280;35839;48.662;13.300;2024-03-23T04:29:49;96626.81;;;7.21;100.00
49947;BME280;35839;48.662;13.300;2024-03-23T04:32:15;96630.84;;;7.33;100.00
49947;BME280;35839;48.662;13.300;2024-03-23T04:34:40;96626.47;;;7.51;100.00
49947;BME280;35839;48.662;13.300;2024-03-23T04:37:06;96621.41;;;6.86;100.00
49947;BME280;35839;48.662;13.300;2024-03-23T04:39:31;96622.53;;;6.84;100.00
49947;BME280;35839;48.662;13.300;2024-03-23T04:41:57;96623.91;;;7.24;100.00
49947;BME280;35839;48.662;13.300;2024-03-23T04:44:22;96612.06;;;7.29;100.00
49947;BME280;35839;48.662;13.300;2024-03-23T04:46:47;96627.94;;;7.54;100.00
49947;BME280;35839;48.662;13.300;2024-03-23T04:49:13;96624.06;;;7.40;100.00
49947;BME280;35839;48.662;13.300;2024-03-23T04:51:38;96614.84;;;7.28;100.00
49947;BME280;35839;48.662;13.300;2024-03-23T04:54:03;96626.91;;;7.65;100.00
49947;BME280;35839;48.662;13.300;2024-03-23T04:56:29;96617.88;;;7.41;100.00
49947;BME280;35839;48.662;13.300;2024-03-23T04:58:56;96617.00;;;6.87;100.00
49947;BME280;35839;48.662;13.300;2024-03-23T05:01:26;96607.31;;;7.07;100.00
49947;BME280;35839;48.662;13.300;2024-03-23T05:03:52;96589.53;;;7.20;100.00
49947;BME280;35839;48.662;13.300;2024-03-23T05:06:18;96593.75;;;7.03;100.00
49947;BME280;35839;48.662;13.300;2024-03-23T05:08:43;96591.78;;;7.33;100.00
49947;BME280;35839;48.662;13.300;2024-03-23T05:11:09;96592.28;;;7.36;100.00
49947;BME280;35839;48.662;13.300;2024-03-23T05:13:34;96583.66;;;7.54;100.00
49947;BME280;35839;48.662;13.300;2024-03-23T05:15:59;96583.28;;;7.49;100.00
49947;BME280;35839;48.662;13.300;2024-03-23T05:18:25;96581.41;;;7.59;100.00
49947;BME280;35839;48.662;13.300;2024-03-23T05:20:56;96579.22;;;7.28;100.00
49947;BME280;35839;48.662;13.300;2024-03-23T05:23:22;96580.16;;;7.45;100.00
49947;BME280;35839;48.662;13.300;2024-03-23T05:25:48;96575.19;;;7.16;100.00
49947;BME280;35839;48.662;13.300;2024-03-23T05:28:13;96573.63;;;7.05;100.00
49947;BME280;35839;48.662;13.300;2024-03-23T05:30:38;96562.84;;;7.00;100.00
49947;BME280;35839;48.662;13.300;2024-03-23T05:33:05;96558.66;;;7.07;100.00
49947;BME280;35839;48.662;13.300;2024-03-23T05:35:32;96547.00;;;7.11;100.00
49947;BME280;35839;48.662;13.300;2024-03-23T05:37:58;96561.06;;;7.18;100.00
49947;BME280;35839;48.662;13.300;2024-03-23T05:40:25;96547.69;;;7.13;100.00
49947;BME280;35839;48.662;13.300;2024-03-23T05:42:51;96539.63;;;7.69;100.00
49947;BME280;35839;48.662;13.300;2024-03-23T05:45:18;96520.41;;;7.96;100.00
49947;BME280;35839;48.662;13.300;2024-03-23T05:47:44;96535.44;;;7.76;100.00
49947;BME280;35839;48.662;13.300;2024-03-23T05:50:10;96518.50;;;7.72;100.00
49947;BME280;35839;48.662;13.300;2024-03-23T05:52:38;96521.31;;;8.13;100.00
49947;BME280;35839;48.662;13.300;2024-03-23T05:55:03;96519.63;;;7.69;100.00
49947;BME280;35839;48.662;13.300;2024-03-23T05:57:29;96506.09;;;8.00;100.00
49947;BME280;35839;48.662;13.300;2024-03-23T05:59:54;96520.75;;;7.93;100.00
49947;BME280;35839;48.662;13.300;2024-03-23T06:02:19;96515.91;;;7.28;100.00
49947;BME280;35839;48.662;13.300;2024-03-23T06:04:45;96530.63;;;8.15;100.00
49947;BME280;35839;48.662;13.300;2024-03-23T06:07:11;96516.25;;;8.46;100.00
49947;BME280;35839;48.662;13.300;2024-03-23T06:09:42;96512.13;;;8.85;100.00
49947;BME280;35839;48.662;13.300;2024-03-23T06:12:07;96508.41;;;9.45;100.00
49947;BME280;35839;48.662;13.300;2024-03-23T06:14:34;96517.19;;;9.85;100.00
49947;BME280;35839;48.662;13.300;2024-03-23T06:17:00;96513.47;;;9.22;100.00
49947;BME280;35839;48.662;13.300;2024-03-23T06:19:26;96502.50;;;9.84;100.00
49947;BME280;35839;48.662;13.300;2024-03-23T06:21:54;96503.00;;;10.27;100.00
49947;BME280;35839;48.662;13.300;2024-03-23T06:24:22;96501.50;;;10.41;100.00
49947;BME280;35839;48.662;13.300;2024-03-23T06:26:48;96492.84;;;10.72;100.00
49947;BME280;35839;48.662;13.300;2024-03-23T06:29:13;96486.13;;;11.01;100.00
49947;BME280;35839;48.662;13.300;2024-03-23T06:31:39;96484.44;;;11.08;100.00
49947;BME280;35839;48.662;13.300;2024-03-23T06:34:04;96486.69;;;11.11;100.00
49947;BME280;35839;48.662;13.300;2024-03-23T06:36:29;96466.44;;;11.05;100.00
49947;BME280;35839;48.662;13.300;2024-03-23T06:38:56;96470.31;;;10.63;100.00
49947;BME280;35839;48.662;13.300;2024-03-23T06:41:21;96469.88;;;11.28;100.00
49947;BME280;35839;48.662;13.300;2024-03-23T06:43:47;96464.13;;;11.48;100.00
49947;BME280;35839;48.662;13.300;2024-03-23T06:46:12;96473.38;;;11.73;100.00
49947;BME280;35839;48.662;13.300;2024-03-23T06:48:37;96478.94;;;11.41;100.00
49947;BME280;35839;48.662;13.300;2024-03-23T06:51:03;96487.81;;;11.92;100.00
49947;BME280;35839;48.662;13.300;2024-03-23T06:53:28;96469.31;;;11.71;100.00
49947;BME280;35839;48.662;13.300;2024-03-23T06:55:54;96479.16;;;11.69;100.00
49947;BME280;35839;48.662;13.300;2024-03-23T06:58:21;96469.66;;;11.15;100.00
49947;BME280;35839;48.662;13.300;2024-03-23T07:00:47;96468.41;;;11.64;100.00
49947;BME280;35839;48.662;13.300;2024-03-23T07:03:12;96466.25;;;12.78;100.00
49947;BME280;35839;48.662;13.300;2024-03-23T07:05:38;96455.34;;;12.08;100.00
49947;BME280;35839;48.662;13.300;2024-03-23T07:08:03;96432.88;;;12.20;100.00
49947;BME280;35839;48.662;13.300;2024-03-23T07:10:29;96433.84;;;12.71;100.00
49947;BME280;35839;48.662;13.300;2024-03-23T07:12:54;96432.59;;;12.67;100.00
49947;BME280;35839;48.662;13.300;2024-03-23T07:15:19;96423.13;;;12.51;100.00
49947;BME280;35839;48.662;13.300;2024-03-23T07:17:47;96404.41;;;12.39;100.00
49947;BME280;35839;48.662;13.300;2024-03-23T07:20:12;96381.78;;;12.01;100.00
49947;BME280;35839;48.662;13.300;2024-03-23T07:22:38;96381.16;;;11.85;100.00
49947;BME280;35839;48.662;13.300;2024-03-23T07:25:05;96393.44;;;11.69;100.00
49947;BME280;35839;48.662;13.300;2024-03-23T07:27:31;96392.09;;;12.39;100.00
49947;BME280;35839;48.662;13.300;2024-03-23T07:29:57;96389.72;;;12.44;100.00
49947;BME280;35839;48.662;13.300;2024-03-23T07:32:22;96394.88;;;12.53;100.00
49947;BME280;35839;48.662;13.300;2024-03-23T07:34:48;96378.34;;;13.02;100.00
49947;BME280;35839;48.662;13.300;2024-03-23T07:37:14;96373.81;;;13.17;100.00
49947;BME280;35839;48.662;13.300;2024-03-23T07:39:39;96380.50;;;12.92;100.00
49947;BME280;35839;48.662;13.300;2024-03-23T07:42:06;96373.56;;;13.12;100.00
49947;BME280;35839;48.662;13.300;2024-03-23T07:44:31;96369.56;;;12.67;100.00
49947;BME280;35839;48.662;13.300;2024-03-23T07:46:56;96363.25;;;13.32;100.00
49947;BME280;35839;48.662;13.300;2024-03-23T07:49:22;96350.47;;;13.29;100.00
49947;BME280;35839;48.662;13.300;2024-03-23T07:51:47;96349.22;;;13.25;100.00
49947;BME280;35839;48.662;13.300;2024-03-23T07:54:13;96353.63;;;13.46;100.00
49947;BME280;35839;48.662;13.300;2024-03-23T07:56:38;96341.56;;;13.30;100.00
49947;BME280;35839;48.662;13.300;2024-03-23T07:59:03;96333.13;;;13.76;100.00
49947;BME280;35839;48.662;13.300;2024-03-23T08:01:29;96343.91;;;13.46;100.00
49947;BME280;35839;48.662;13.300;2024-03-23T08:03:55;96332.44;;;14.09;100.00
49947;BME280;35839;48.662;13.300;2024-03-23T08:06:20;96327.84;;;13.69;100.00
49947;BME280;35839;48.662;13.300;2024-03-23T08:08:51;96314.59;;;13.98;100.00
49947;BME280;35839;48.662;13.300;2024-03-23T08:11:27;96324.63;;;13.74;100.00
49947;BME280;35839;48.662;13.300;2024-03-23T08:13:53;96320.03;;;14.64;100.00
49947;BME280;35839;48.662;13.300;2024-03-23T08:16:19;96310.72;;;14.95;100.00
49947;BME280;35839;48.662;13.300;2024-03-23T08:18:44;96302.56;;;15.30;100.00
49947;BME280;35839;48.662;13.300;2024-03-23T08:21:11;96295.53;;;15.82;100.00
49947;BME280;35839;48.662;13.300;2024-03-23T08:23:37;96290.63;;;14.94;100.00
49947;BME280;35839;48.662;13.300;2024-03-23T08:26:07;96285.06;;;15.55;100.00
49947;BME280;35839;48.662;13.300;2024-03-23T08:28:34;96282.50;;;15.87;100.00
49947;BME280;35839;48.662;13.300;2024-03-23T08:31:08;96277.16;;;16.00;100.00
49947;BME280;35839;48.662;13.300;2024-03-23T08:33:34;96275.38;;;15.94;100.00
49947;BME280;35839;48.662;13.300;2024-03-23T08:36:06;96288.69;;;15.54;100.00
49947;BME280;35839;48.662;13.300;2024-03-23T08:38:32;96286.63;;;15.70;100.00
49947;BME280;35839;48.662;13.300;2024-03-23T08:40:58;96301.59;;;15.17;100.00
49947;BME280;35839;48.662;13.300;2024-03-23T08:43:24;96309.06;;;14.54;100.00
49947;BME280;35839;48.662;13.300;2024-03-23T08:45:49;96317.22;;;14.79;100.00
49947;BME280;35839;48.662;13.300;2024-03-23T08:48:15;96325.31;;;14.71;100.00
49947;BME280;35839;48.662;13.300;2024-03-23T08:50:40;96339.44;;;14.50;100.00
49947;BME280;35839;48.662;13.300;2024-03-23T08:53:06;96339.38;;;14.23;100.00
49947;BME280;35839;48.662;13.300;2024-03-23T08:55:31;96377.69;;;13.84;100.00
49947;BME280;35839;48.662;13.300;2024-03-23T08:57:56;96369.13;;;13.69;100.00
49947;BME280;35839;48.662;13.300;2024-03-23T09:00:22;96342.19;;;13.32;100.00
49947;BME280;35839;48.662;13.300;2024-03-23T09:02:48;96363.78;;;13.56;100.00
49947;BME280;35839;48.662;13.300;2024-03-23T09:05:13;96373.53;;;13.62;100.00
49947;BME280;35839;48.662;13.300;2024-03-23T09:07:38;96399.03;;;13.33;100.00
49947;BME280;35839;48.662;13.300;2024-03-23T09:10:04;96419.66;;;13.08;100.00
49947;BME280;35839;48.662;13.300;2024-03-23T09:12:30;96467.41;;;12.39;100.00
49947;BME280;35839;48.662;13.300;2024-03-23T09:14:55;96396.31;;;12.19;100.00
49947;BME280;35839;48.662;13.300;2024-03-23T09:17:20;96458.41;;;11.97;100.00
49947;BME280;35839;48.662;13.300;2024-03-23T09:19:46;96492.09;;;11.70;100.00
49947;BME280;35839;48.662;13.300;2024-03-23T09:22:11;96489.97;;;11.51;100.00
49947;BME280;35839;48.662;13.300;2024-03-23T09:24:38;96505.91;;;11.26;100.00
49947;BME280;35839;48.662;13.300;2024-03-23T09:27:04;96537.78;;;11.15;100.00
49947;BME280;35839;48.662;13.300;2024-03-23T09:29:30;96546.50;;;11.07;100.00
49947;BME280;35839;48.662;13.300;2024-03-23T09:31:55;96552.34;;;10.86;100.00
49947;BME280;35839;48.662;13.300;2024-03-23T09:34:21;96565.69;;;11.00;100.00
49947;BME280;35839;48.662;13.300;2024-03-23T09:36:47;96545.47;;;10.85;100.00
49947;BME280;35839;48.662;13.300;2024-03-23T09:39:12;96568.53;;;10.90;100.00
49947;BME280;35839;48.662;13.300;2024-03-23T09:41:39;96578.09;;;11.06;100.00
49947;BME280;35839;48.662;13.300;2024-03-23T09:44:05;96571.00;;;10.91;100.00
49947;BME280;35839;48.662;13.300;2024-03-23T09:46:30;96574.56;;;10.90;100.00
49947;BME280;35839;48.662;13.300;2024-03-23T09:49:00;96571.16;;;10.90;100.00
49947;BME280;35839;48.662;13.300;2024-03-23T09:51:25;96582.28;;;10.84;100.00
49947;BME280;35839;48.662;13.300;2024-03-23T09:53:51;96586.13;;;10.73;100.00
49947;BME280;35839;48.662;13.300;2024-03-23T09:56:17;96570.06;;;10.76;100.00
49947;BME280;35839;48.662;13.300;2024-03-23T09:58:43;96566.19;;;10.64;100.00
49947;BME280;35839;48.662;13.300;2024-03-23T10:01:09;96557.19;;;10.97;100.00
49947;BME280;35839;48.662;13.300;2024-03-23T10:03:46;96542.59;;;11.03;100.00
49947;BME280;35839;48.662;13.300;2024-03-23T10:06:11;96554.81;;;10.48;100.00
49947;BME280;35839;48.662;13.300;2024-03-23T10:08:37;96560.69;;;10.50;100.00
49947;BME280;35839;48.662;13.300;2024-03-23T10:11:22;96562.34;;;10.51;100.00
49947;BME280;35839;48.662;13.300;2024-03-23T10:13:48;96570.78;;;10.62;100.00
49947;BME280;35839;48.662;13.300;2024-03-23T10:16:23;96574.72;;;10.58;100.00
49947;BME280;35839;48.662;13.300;2024-03-23T10:18:49;96576.09;;;10.45;100.00
49947;BME280;35839;48.662;13.300;2024-03-23T10:21:16;96582.78;;;10.87;100.00
49947;BME280;35839;48.662;13.300;2024-03-23T10:23:43;96601.28;;;10.86;100.00
49947;BME280;35839;48.662;13.300;2024-03-23T10:26:19;96594.50;;;10.68;100.00
49947;BME280;35839;48.662;13.300;2024-03-23T10:28:55;96599.59;;;10.62;100.00
49947;BME280;35839;48.662;13.300;2024-03-23T10:31:23;96601.25;;;10.54;100.00
49947;BME280;35839;48.662;13.300;2024-03-23T10:33:50;96593.19;;;10.64;100.00
49947;BME280;35839;48.662;13.300;2024-03-23T10:36:19;96599.63;;;10.45;100.00
49947;BME280;35839;48.662;13.300;2024-03-23T10:38:45;96592.25;;;10.57;100.00
49947;BME280;35839;48.662;13.300;2024-03-23T10:41:12;96589.78;;;10.55;100.00
49947;BME280;35839;48.662;13.300;2024-03-23T10:43:38;96598.28;;;10.58;100.00
49947;BME280;35839;48.662;13.300;2024-03-23T10:46:04;96600.94;;;10.49;100.00
49947;BME280;35839;48.662;13.300;2024-03-23T10:48:32;96602.22;;;10.53;100.00
49947;BME280;35839;48.662;13.300;2024-03-23T10:50:57;96607.00;;;10.50;100.00
49947;BME280;35839;48.662;13.300;2024-03-23T10:53:25;96605.75;;;10.77;100.00
49947;BME280;35839;48.662;13.300;2024-03-23T10:55:52;96606.78;;;10.68;100.00
49947;BME280;35839;48.662;13.300;2024-03-23T10:58:23;96608.03;;;10.80;100.00
49947;BME280;35839;48.662;13.300;2024-03-23T11:00:50;96606.44;;;10.63;100.00
49947;BME280;35839;48.662;13.300;2024-03-23T11:03:38;96609.44;;;10.51;100.00
49947;BME280;35839;48.662;13.300;2024-03-23T11:06:05;96612.91;;;10.83;100.00
49947;BME280;35839;48.662;13.300;2024-03-23T11:08:37;96608.69;;;10.74;100.00
49947;BME280;35839;48.662;13.300;2024-03-23T11:11:18;96607.31;;;10.94;100.00
49947;BME280;35839;48.662;13.300;2024-03-23T11:13:47;96605.16;;;10.59;100.00
49947;BME280;35839;48.662;13.300;2024-03-23T11:16:16;96600.75;;;10.99;100.00
49947;BME280;35839;48.662;13.300;2024-03-23T11:18:43;96601.03;;;11.04;100.00
49947;BME280;35839;48.662;13.300;2024-03-23T11:21:10;96612.09;;;10.83;100.00
49947;BME280;35839;48.662;13.300;2024-03-23T11:23:35;96609.78;;;10.88;100.00
49947;BME280;35839;48.662;13.300;2024-03-23T11:26:01;96602.88;;;10.95;100.00
49947;BME280;35839;48.662;13.300;2024-03-23T11:28:26;96603.78;;;11.10;100.00
49947;BME280;35839;48.662;13.300;2024-03-23T11:30:52;96601.88;;;11.27;100.00
49947;BME280;35839;48.662;13.300;2024-03-23T11:33:17;96601.94;;;11.19;100.00
49947;BME280;35839;48.662;13.300;2024-03-23T11:35:43;96602.88;;;11.26;100.00
49947;BME280;35839;48.662;13.300;2024-03-23T11:38:16;96603.31;;;11.38;100.00
49947;BME280;35839;48.662;13.300;2024-03-23T11:40:45;96610.31;;;11.14;100.00
49947;BME280;35839;48.662;13.300;2024-03-23T11:43:19;96610.13;;;11.16;100.00
49947;BME280;35839;48.662;13.300;2024-03-23T11:45:49;96616.41;;;10.75;100.00
49947;BME280;35839;48.662;13.300;2024-03-23T11:48:21;96625.72;;;10.78;100.00
49947;BME280;35839;48.662;13.300;2024-03-23T11:50:55;96618.06;;;10.68;100.00
49947;BME280;35839;48.662;13.300;2024-03-23T11:53:22;96621.88;;;11.28;100.00
49947;BME280;35839;48.662;13.300;2024-03-23T11:55:49;96627.44;;;11.25;100.00
49947;BME280;35839;48.662;13.300;2024-03-23T11:58:17;96622.50;;;11.30;100.00
49947;BME280;35839;48.662;13.300;2024-03-23T12:00:52;96618.28;;;11.75;100.00
49947;BME280;35839;48.662;13.300;2024-03-23T12:03:18;96615.28;;;11.32;100.00
49947;BME280;35839;48.662;13.300;2024-03-23T12:05:50;96632.19;;;10.99;100.00
49947;BME280;35839;48.662;13.300;2024-03-23T12:08:34;96645.94;;;10.45;100.00
49947;BME280;35839;48.662;13.300;2024-03-23T12:11:14;96651.13;;;10.53;100.00
49947;BME280;35839;48.662;13.300;2024-03-23T12:13:42;96660.50;;;10.15;100.00
49947;BME280;35839;48.662;13.300;2024-03-23T12:16:18;96660.19;;;10.42;100.00
49947;BME280;35839;48.662;13.300;2024-03-23T12:18:48;96660.34;;;10.24;100.00
49947;BME280;35839;48.662;13.300;2024-03-23T12:21:14;96655.59;;;10.36;100.00
49947;BME280;35839;48.662;13.300;2024-03-23T12:23:40;96651.69;;;9.99;100.00
49947;BME280;35839;48.662;13.300;2024-03-23T12:26:08;96651.69;;;10.07;100.00
49947;BME280;35839;48.662;13.300;2024-03-23T12:28:33;96648.72;;;10.10;100.00
49947;BME280;35839;48.662;13.300;2024-03-23T12:30:59;96642.88;;;9.67;100.00
49947;BME280;35839;48.662;13.300;2024-03-23T12:33:25;96643.16;;;10.13;100.00
49947;BME280;35839;48.662;13.300;2024-03-23T12:35:51;96651.69;;;9.83;100.00
49947;BME280;35839;48.662;13.300;2024-03-23T12:38:17;96644.81;;;9.74;100.00
49947;BME280;35839;48.662;13.300;2024-03-23T12:40:49;96653.31;;;9.92;100.00
49947;BME280;35839;48.662;13.300;2024-03-23T12:43:15;96658.69;;;9.90;100.00
49947;BME280;35839;48.662;13.300;2024-03-23T12:45:41;96654.13;;;10.01;100.00
49947;BME280;35839;48.662;13.300;2024-03-23T12:48:06;96642.38;;;10.29;100.00
49947;BME280;35839;48.662;13.300;2024-03-23T12:50:32;96667.69;;;9.88;100.00
49947;BME280;35839;48.662;13.300;2024-03-23T12:52:58;96664.78;;;10.07;100.00
49947;BME280;35839;48.662;13.300;2024-03-23T12:55:23;96667.06;;;10.02;100.00
49947;BME280;35839;48.662;13.300;2024-03-23T12:57:48;96659.19;;;10.27;100.00
49947;BME280;35839;48.662;13.300;2024-03-23T13:00:14;96577.47;;;9.92;100.00
49947;BME280;35839;48.662;13.300;2024-03-23T13:02:41;96666.06;;;10.44;100.00
49947;BME280;35839;48.662;13.300;2024-03-23T13:05:07;96660.34;;;10.49;100.00
49947;BME280;35839;48.662;13.300;2024-03-23T13:07:35;96677.50;;;10.27;100.00
49947;BME280;35839;48.662;13.300;2024-03-23T13:10:03;96685.69;;;10.24;100.00
49947;BME280;35839;48.662;13.300;2024-03-23T13:12:29;96669.31;;;10.46;100.00
49947;BME280;35839;48.662;13.300;2024-03-23T13:14:54;96682.00;;;10.74;100.00
49947;BME280;35839;48.662;13.300;2024-03-23T13:17:20;96665.66;;;10.72;100.00
49947;BME280;35839;48.662;13.300;2024-03-23T13:19:46;96669.00;;;10.49;100.00
49947;BME280;35839;48.662;13.300;2024-03-23T13:22:11;96660.19;;;10.26;100.00
49947;BME280;35839;48.662;13.300;2024-03-23T13:24:37;96664.56;;;10.42;100.00
49947;BME280;35839;48.662;13.300;2024-03-23T13:27:03;96644.81;;;10.31;100.00
49947;BME280;35839;48.662;13.300;2024-03-23T13:29:31;96659.84;;;10.37;100.00
49947;BME280;35839;48.662;13.300;2024-03-23T13:31:56;96681.91;;;10.51;100.00
49947;BME280;35839;48.662;13.300;2024-03-23T13:34:21;96693.53;;;10.48;98.79